sensor_id;sensor_type;location;lat;lon;timestamp;P1;durP1;ratioP1;P2;durP2;ratioP2
29570;SDS011;16814;52.118;11.436;2024-02-14T00:00:12;8.18;;;3.78;;
29570;SDS011;16814;52.118;11.436;2024-02-14T00:02:47;13.88;;;4.35;;
29570;SDS011;16814;52.118;11.436;2024-02-14T00:05:15;11.68;;;4.22;;
29570;SDS011;16814;52.118;11.436;2024-02-14T00:07:42;9.48;;;3.65;;
29570;SDS011;16814;52.118;11.436;2024-02-14T00:10:09;11.30;;;3.95;;
29570;SDS011;16814;52.118;11.436;2024-02-14T00:12:36;10.88;;;3.60;;
29570;SDS011;16814;52.118;11.436;2024-02-14T00:15:04;7.55;;;3.50;;
29570;SDS011;16814;52.118;11.436;2024-02-14T00:17:32;8.85;;;3.47;;
29570;SDS011;16814;52.118;11.436;2024-02-14T00:20:01;6.80;;;3.30;;
29570;SDS011;16814;52.118;11.436;2024-02-14T00:22:31;8.55;;;3.60;;
29570;SDS011;16814;52.118;11.436;2024-02-14T00:24:56;8.53;;;3.53;;
29570;SDS011;16814;52.118;11.436;2024-02-14T00:27:23;10.13;;;3.60;;
29570;SDS011;16814;52.118;11.436;2024-02-14T00:29:53;7.60;;;3.40;;
29570;SDS011;16814;52.118;11.436;2024-02-14T00:32:23;10.07;;;3.10;;
29570;SDS011;16814;52.118;11.436;2024-02-14T00:34:50;10.80;;;3.92;;
29570;SDS011;16814;52.118;11.436;2024-02-14T00:37:19;6.00;;;3.17;;
29570;SDS011;16814;52.118;11.436;2024-02-14T00:39:47;7.03;;;3.07;;
29570;SDS011;16814;52.118;11.436;2024-02-14T00:42:15;5.80;;;3.20;;
29570;SDS011;16814;52.118;11.436;2024-02-14T00:44:43;6.45;;;3.17;;
29570;SDS011;16814;52.118;11.436;2024-02-14T00:47:10;6.68;;;3.22;;
29570;SDS011;16814;52.118;11.436;2024-02-14T00:49:37;7.47;;;3.33;;
29570;SDS011;16814;52.118;11.436;2024-02-14T00:52:06;6.60;;;3.40;;
29570;SDS011;16814;52.118;11.436;2024-02-14T00:54:35;5.10;;;3.17;;
29570;SDS011;16814;52.118;11.436;2024-02-14T00:57:00;8.50;;;3.30;;
29570;SDS011;16814;52.118;11.436;2024-02-14T00:59:26;6.50;;;3.10;;
29570;SDS011;16814;52.118;11.436;2024-02-14T01:01:52;7.57;;;3.03;;
29570;SDS011;16814;52.118;11.436;2024-02-14T01:04:19;12.53;;;3.27;;
29570;SDS011;16814;52.118;11.436;2024-02-14T01:06:46;9.07;;;3.78;;
29570;SDS011;16814;52.118;11.436;2024-02-14T01:09:15;7.00;;;3.33;;
29570;SDS011;16814;52.118;11.436;2024-02-14T01:11:44;8.40;;;3.30;;
29570;SDS011;16814;52.118;11.436;2024-02-14T01:14:12;6.82;;;3.33;;
29570;SDS011;16814;52.118;11.436;2024-02-14T01:16:45;11.70;;;3.28;;
29570;SDS011;16814;52.118;11.436;2024-02-14T01:19:12;6.75;;;3.33;;
29570;SDS011;16814;52.118;11.436;2024-02-14T01:21:40;6.03;;;3.22;;
29570;SDS011;16814;52.118;11.436;2024-02-14T01:24:07;7.32;;;3.28;;
29570;SDS011;16814;52.118;11.436;2024-02-14T01:26:36;6.27;;;3.27;;
29570;SDS011;16814;52.118;11.436;2024-02-14T01:29:07;8.00;;;3.30;;
29570;SDS011;16814;52.118;11.436;2024-02-14T01:31:36;7.43;;;3.20;;
29570;SDS011;16814;52.118;11.436;2024-02-14T01:34:03;6.75;;;3.42;;
29570;SDS011;16814;52.118;11.436;2024-02-14T01:36:31;7.35;;;3.65;;
29570;SDS011;16814;52.118;11.436;2024-02-14T01:38:58;8.67;;;3.37;;
29570;SDS011;16814;52.118;11.436;2024-02-14T01:41:23;7.32;;;3.17;;
29570;SDS011;16814;52.118;11.436;2024-02-14T01:43:49;7.78;;;3.42;;
29570;SDS011;16814;52.118;11.436;2024-02-14T01:46:19;9.53;;;3.47;;
29570;SDS011;16814;52.118;11.436;2024-02-14T01:48:53;6.70;;;3.20;;
29570;SDS011;16814;52.118;11.436;2024-02-14T01:51:23;9.00;;;3.30;;
29570;SDS011;16814;52.118;11.436;2024-02-14T01:53:50;7.82;;;3.05;;
29570;SDS011;16814;52.118;11.436;2024-02-14T01:56:17;6.82;;;3.42;;
29570;SDS011;16814;52.118;11.436;2024-02-14T01:58:43;7.13;;;3.22;;
29570;SDS011;16814;52.118;11.436;2024-02-14T02:01:12;6.53;;;3.13;;
29570;SDS011;16814;52.118;11.436;2024-02-14T02:03:38;6.72;;;3.38;;
29570;SDS011;16814;52.118;11.436;2024-02-14T02:06:05;6.28;;;3.03;;
29570;SDS011;16814;52.118;11.436;2024-02-14T02:08:35;6.15;;;3.60;;
29570;SDS011;16814;52.118;11.436;2024-02-14T02:11:03;7.25;;;3.08;;
29570;SDS011;16814;52.118;11.436;2024-02-14T02:13:33;7.13;;;3.70;;
29570;SDS011;16814;52.118;11.436;2024-02-14T02:15:59;8.55;;;3.70;;
29570;SDS011;16814;52.118;11.436;2024-02-14T02:18:48;7.95;;;3.55;;
29570;SDS011;16814;52.118;11.436;2024-02-14T02:21:16;8.05;;;3.80;;
29570;SDS011;16814;52.118;11.436;2024-02-14T02:23:46;7.35;;;4.00;;
29570;SDS011;16814;52.118;11.436;2024-02-14T02:26:14;9.23;;;3.80;;
29570;SDS011;16814;52.118;11.436;2024-02-14T02:28:41;10.07;;;3.88;;
29570;SDS011;16814;52.118;11.436;2024-02-14T02:31:08;9.77;;;3.63;;
29570;SDS011;16814;52.118;11.436;2024-02-14T02:33:37;7.30;;;4.05;;
29570;SDS011;16814;52.118;11.436;2024-02-14T02:36:04;9.00;;;4.18;;
29570;SDS011;16814;52.118;11.436;2024-02-14T02:38:31;11.13;;;4.68;;
29570;SDS011;16814;52.118;11.436;2024-02-14T02:40:58;14.45;;;4.68;;
29570;SDS011;16814;52.118;11.436;2024-02-14T02:43:27;10.68;;;4.30;;
29570;SDS011;16814;52.118;11.436;2024-02-14T02:45:54;7.60;;;4.00;;
29570;SDS011;16814;52.118;11.436;2024-02-14T02:48:24;12.65;;;4.50;;
29570;SDS011;16814;52.118;11.436;2024-02-14T02:50:52;15.82;;;4.53;;
29570;SDS011;16814;52.118;11.436;2024-02-14T02:53:19;9.63;;;4.30;;
29570;SDS011;16814;52.118;11.436;2024-02-14T02:55:46;9.00;;;4.18;;
29570;SDS011;16814;52.118;11.436;2024-02-14T02:58:19;10.82;;;4.10;;
29570;SDS011;16814;52.118;11.436;2024-02-14T03:00:47;9.52;;;4.22;;
29570;SDS011;16814;52.118;11.436;2024-02-14T03:03:14;8.55;;;4.35;;
29570;SDS011;16814;52.118;11.436;2024-02-14T03:05:43;8.80;;;4.15;;
29570;SDS011;16814;52.118;11.436;2024-02-14T03:08:14;8.68;;;3.88;;
29570;SDS011;16814;52.118;11.436;2024-02-14T03:10:42;8.73;;;4.35;;
29570;SDS011;16814;52.118;11.436;2024-02-14T03:13:11;10.73;;;4.40;;
29570;SDS011;16814;52.118;11.436;2024-02-14T03:15:38;9.30;;;4.00;;
29570;SDS011;16814;52.118;11.436;2024-02-14T03:18:05;9.18;;;4.50;;
29570;SDS011;16814;52.118;11.436;2024-02-14T03:20:38;13.03;;;4.50;;
29570;SDS011;16814;52.118;11.436;2024-02-14T03:23:05;10.88;;;4.93;;
29570;SDS011;16814;52.118;11.436;2024-02-14T03:25:32;9.48;;;4.63;;
29570;SDS011;16814;52.118;11.436;2024-02-14T03:28:08;9.55;;;5.32;;
29570;SDS011;16814;52.118;11.436;2024-02-14T03:30:39;11.93;;;4.85;;
29570;SDS011;16814;52.118;11.436;2024-02-14T03:33:08;10.02;;;4.78;;
29570;SDS011;16814;52.118;11.436;2024-02-14T03:35:36;12.43;;;4.68;;
29570;SDS011;16814;52.118;11.436;2024-02-14T03:38:06;12.57;;;4.90;;
29570;SDS011;16814;52.118;11.436;2024-02-14T03:40:35;9.93;;;4.50;;
29570;SDS011;16814;52.118;11.436;2024-02-14T03:43:04;8.32;;;4.93;;
29570;SDS011;16814;52.118;11.436;2024-02-14T03:45:32;9.43;;;4.38;;
29570;SDS011;16814;52.118;11.436;2024-02-14T03:47:58;13.05;;;4.63;;
29570;SDS011;16814;52.118;11.436;2024-02-14T03:50:24;8.57;;;4.73;;
29570;SDS011;16814;52.118;11.436;2024-02-14T03:52:51;9.43;;;4.10;;
29570;SDS011;16814;52.118;11.436;2024-02-14T03:55:21;12.00;;;4.57;;
29570;SDS011;16814;52.118;11.436;2024-02-14T03:57:50;12.23;;;4.32;;
29570;SDS011;16814;52.118;11.436;2024-02-14T04:00:17;8.20;;;4.13;;
29570;SDS011;16814;52.118;11.436;2024-02-14T04:02:46;11.55;;;4.68;;
29570;SDS011;16814;52.118;11.436;2024-02-14T04:05:15;9.70;;;4.38;;
29570;SDS011;16814;52.118;11.436;2024-02-14T04:07:42;13.70;;;4.32;;
29570;SDS011;16814;52.118;11.436;2024-02-14T04:10:15;10.38;;;4.40;;
29570;SDS011;16814;52.118;11.436;2024-02-14T04:12:41;11.50;;;4.40;;
29570;SDS011;16814;52.118;11.436;2024-02-14T04:15:10;7.77;;;3.70;;
29570;SDS011;16814;52.118;11.436;2024-02-14T04:17:44;10.85;;;4.50;;
29570;SDS011;16814;52.118;11.436;2024-02-14T04:20:12;9.63;;;4.70;;
29570;SDS011;16814;52.118;11.436;2024-02-14T04:22:39;10.57;;;4.75;;
29570;SDS011;16814;52.118;11.436;2024-02-14T04:25:04;9.60;;;4.33;;
29570;SDS011;16814;52.118;11.436;2024-02-14T04:27:37;11.10;;;4.40;;
29570;SDS011;16814;52.118;11.436;2024-02-14T04:30:05;9.57;;;4.70;;
29570;SDS011;16814;52.118;11.436;2024-02-14T04:32:34;8.73;;;4.57;;
29570;SDS011;16814;52.118;11.436;2024-02-14T04:35:11;8.73;;;4.47;;
29570;SDS011;16814;52.118;11.436;2024-02-14T04:37:39;8.15;;;4.30;;
29570;SDS011;16814;52.118;11.436;2024-02-14T04:40:10;11.52;;;4.78;;
29570;SDS011;16814;52.118;11.436;2024-02-14T04:42:39;10.90;;;4.40;;
29570;SDS011;16814;52.118;11.436;2024-02-14T04:45:07;9.10;;;4.22;;
29570;SDS011;16814;52.118;11.436;2024-02-14T04:47:34;7.95;;;4.47;;
29570;SDS011;16814;52.118;11.436;2024-02-14T04:50:02;9.35;;;4.60;;
29570;SDS011;16814;52.118;11.436;2024-02-14T04:52:32;12.57;;;4.97;;
29570;SDS011;16814;52.118;11.436;2024-02-14T04:54:57;10.93;;;4.47;;
29570;SDS011;16814;52.118;11.436;2024-02-14T04:57:24;10.35;;;4.13;;
29570;SDS011;16814;52.118;11.436;2024-02-14T04:59:50;9.93;;;4.50;;
29570;SDS011;16814;52.118;11.436;2024-02-14T05:02:18;9.95;;;3.97;;
29570;SDS011;16814;52.118;11.436;2024-02-14T05:04:44;11.00;;;4.50;;
29570;SDS011;16814;52.118;11.436;2024-02-14T05:07:11;9.37;;;4.30;;
29570;SDS011;16814;52.118;11.436;2024-02-14T05:09:37;7.57;;;3.95;;
29570;SDS011;16814;52.118;11.436;2024-02-14T05:12:04;8.87;;;4.00;;
29570;SDS011;16814;52.118;11.436;2024-02-14T05:14:37;12.00;;;4.10;;
29570;SDS011;16814;52.118;11.436;2024-02-14T05:17:09;9.68;;;4.25;;
29570;SDS011;16814;52.118;11.436;2024-02-14T05:19:36;7.60;;;3.88;;
29570;SDS011;16814;52.118;11.436;2024-02-14T05:22:08;6.80;;;3.80;;
29570;SDS011;16814;52.118;11.436;2024-02-14T05:24:36;9.15;;;3.90;;
29570;SDS011;16814;52.118;11.436;2024-02-14T05:27:09;7.38;;;3.63;;
29570;SDS011;16814;52.118;11.436;2024-02-14T05:29:36;13.18;;;3.78;;
29570;SDS011;16814;52.118;11.436;2024-02-14T05:32:04;9.85;;;3.72;;
29570;SDS011;16814;52.118;11.436;2024-02-14T05:34:32;7.85;;;3.70;;
29570;SDS011;16814;52.118;11.436;2024-02-14T05:37:00;9.67;;;3.83;;
29570;SDS011;16814;52.118;11.436;2024-02-14T05:39:25;8.27;;;3.88;;
29570;SDS011;16814;52.118;11.436;2024-02-14T05:41:53;10.98;;;4.00;;
29570;SDS011;16814;52.118;11.436;2024-02-14T05:44:20;9.40;;;3.60;;
29570;SDS011;16814;52.118;11.436;2024-02-14T05:46:48;9.00;;;3.75;;
29570;SDS011;16814;52.118;11.436;2024-02-14T05:49:19;8.25;;;3.75;;
29570;SDS011;16814;52.118;11.436;2024-02-14T05:51:48;6.93;;;3.50;;
29570;SDS011;16814;52.118;11.436;2024-02-14T05:54:15;12.20;;;3.70;;
29570;SDS011;16814;52.118;11.436;2024-02-14T05:56:42;9.50;;;3.13;;
29570;SDS011;16814;52.118;11.436;2024-02-14T05:59:07;7.82;;;3.40;;
29570;SDS011;16814;52.118;11.436;2024-02-14T06:01:35;7.20;;;3.20;;
29570;SDS011;16814;52.118;11.436;2024-02-14T06:04:02;10.18;;;3.55;;
29570;SDS011;16814;52.118;11.436;2024-02-14T06:06:29;9.13;;;3.40;;
29570;SDS011;16814;52.118;11.436;2024-02-14T06:08:56;15.00;;;3.10;;
29570;SDS011;16814;52.118;11.436;2024-02-14T06:11:23;8.32;;;3.30;;
29570;SDS011;16814;52.118;11.436;2024-02-14T06:13:50;11.52;;;3.47;;
29570;SDS011;16814;52.118;11.436;2024-02-14T06:16:18;9.73;;;3.25;;
29570;SDS011;16814;52.118;11.436;2024-02-14T06:18:47;9.82;;;3.40;;
29570;SDS011;16814;52.118;11.436;2024-02-14T06:21:14;6.72;;;3.20;;
29570;SDS011;16814;52.118;11.436;2024-02-14T06:23:40;7.38;;;2.83;;
29570;SDS011;16814;52.118;11.436;2024-02-14T06:26:07;11.73;;;3.00;;
29570;SDS011;16814;52.118;11.436;2024-02-14T06:28:35;8.20;;;3.20;;
29570;SDS011;16814;52.118;11.436;2024-02-14T06:31:03;7.13;;;2.85;;
29570;SDS011;16814;52.118;11.436;2024-02-14T06:33:31;8.23;;;3.25;;
29570;SDS011;16814;52.118;11.436;2024-02-14T06:35:59;7.55;;;2.88;;
29570;SDS011;16814;52.118;11.436;2024-02-14T06:38:33;9.43;;;3.40;;
29570;SDS011;16814;52.118;11.436;2024-02-14T06:41:00;7.22;;;3.00;;
29570;SDS011;16814;52.118;11.436;2024-02-14T06:43:28;9.60;;;3.10;;
29570;SDS011;16814;52.118;11.436;2024-02-14T06:45:56;7.35;;;3.03;;
29570;SDS011;16814;52.118;11.436;2024-02-14T06:48:23;9.57;;;3.00;;
29570;SDS011;16814;52.118;11.436;2024-02-14T06:50:52;8.20;;;3.40;;
29570;SDS011;16814;52.118;11.436;2024-02-14T06:53:19;10.77;;;3.17;;
29570;SDS011;16814;52.118;11.436;2024-02-14T06:55:51;8.77;;;3.10;;
29570;SDS011;16814;52.118;11.436;2024-02-14T06:58:19;6.67;;;3.13;;
29570;SDS011;16814;52.118;11.436;2024-02-14T07:00:44;11.60;;;3.40;;
29570;SDS011;16814;52.118;11.436;2024-02-14T07:03:11;8.02;;;2.80;;
29570;SDS011;16814;52.118;11.436;2024-02-14T07:05:38;6.15;;;2.95;;
29570;SDS011;16814;52.118;11.436;2024-02-14T07:08:04;9.95;;;2.85;;
29570;SDS011;16814;52.118;11.436;2024-02-14T07:10:30;9.05;;;3.33;;
29570;SDS011;16814;52.118;11.436;2024-02-14T07:12:57;10.20;;;3.10;;
29570;SDS011;16814;52.118;11.436;2024-02-14T07:15:25;9.85;;;3.28;;
29570;SDS011;16814;52.118;11.436;2024-02-14T07:17:55;11.80;;;3.83;;
29570;SDS011;16814;52.118;11.436;2024-02-14T07:20:22;7.57;;;2.70;;
29570;SDS011;16814;52.118;11.436;2024-02-14T07:22:57;8.95;;;3.15;;
29570;SDS011;16814;52.118;11.436;2024-02-14T07:25:28;8.00;;;2.83;;
29570;SDS011;16814;52.118;11.436;2024-02-14T07:27:54;9.27;;;3.22;;
29570;SDS011;16814;52.118;11.436;2024-02-14T07:30:24;7.13;;;3.03;;
29570;SDS011;16814;52.118;11.436;2024-02-14T07:32:51;7.28;;;2.78;;
29570;SDS011;16814;52.118;11.436;2024-02-14T07:35:18;8.43;;;3.20;;
29570;SDS011;16814;52.118;11.436;2024-02-14T07:37:45;6.45;;;2.90;;
29570;SDS011;16814;52.118;11.436;2024-02-14T07:40:15;8.67;;;2.80;;
29570;SDS011;16814;52.118;11.436;2024-02-14T07:42:49;6.68;;;2.53;;
29570;SDS011;16814;52.118;11.436;2024-02-14T07:45:14;5.97;;;2.83;;
29570;SDS011;16814;52.118;11.436;2024-02-14T07:47:42;8.38;;;2.42;;
29570;SDS011;16814;52.118;11.436;2024-02-14T07:50:11;8.48;;;2.40;;
29570;SDS011;16814;52.118;11.436;2024-02-14T07:52:43;6.87;;;2.60;;
29570;SDS011;16814;52.118;11.436;2024-02-14T07:55:12;6.32;;;2.10;;
29570;SDS011;16814;52.118;11.436;2024-02-14T07:57:40;8.75;;;2.35;;
29570;SDS011;16814;52.118;11.436;2024-02-14T08:00:09;6.93;;;2.40;;
29570;SDS011;16814;52.118;11.436;2024-02-14T08:02:35;7.57;;;2.63;;
29570;SDS011;16814;52.118;11.436;2024-02-14T08:05:02;9.35;;;2.28;;
29570;SDS011;16814;52.118;11.436;2024-02-14T08:07:36;4.45;;;2.15;;
29570;SDS011;16814;52.118;11.436;2024-02-14T08:10:05;4.43;;;2.20;;
29570;SDS011;16814;52.118;11.436;2024-02-14T08:12:33;6.82;;;2.28;;
29570;SDS011;16814;52.118;11.436;2024-02-14T08:14:59;5.23;;;2.30;;
29570;SDS011;16814;52.118;11.436;2024-02-14T08:17:31;4.32;;;2.47;;
29570;SDS011;16814;52.118;11.436;2024-02-14T08:19:59;8.57;;;2.35;;
29570;SDS011;16814;52.118;11.436;2024-02-14T08:22:30;5.68;;;2.30;;
29570;SDS011;16814;52.118;11.436;2024-02-14T08:25:08;6.55;;;2.20;;
29570;SDS011;16814;52.118;11.436;2024-02-14T08:27:36;6.25;;;2.40;;
29570;SDS011;16814;52.118;11.436;2024-02-14T08:30:02;9.98;;;2.00;;
29570;SDS011;16814;52.118;11.436;2024-02-14T08:32:33;6.40;;;2.25;;
29570;SDS011;16814;52.118;11.436;2024-02-14T08:35:02;5.10;;;2.00;;
29570;SDS011;16814;52.118;11.436;2024-02-14T08:37:30;4.75;;;2.38;;
29570;SDS011;16814;52.118;11.436;2024-02-14T08:39:58;8.63;;;2.20;;
29570;SDS011;16814;52.118;11.436;2024-02-14T08:42:26;7.13;;;2.20;;
29570;SDS011;16814;52.118;11.436;2024-02-14T08:44:54;4.55;;;2.00;;
29570;SDS011;16814;52.118;11.436;2024-02-14T08:47:21;4.50;;;2.20;;
29570;SDS011;16814;52.118;11.436;2024-02-14T08:49:46;8.27;;;2.27;;
29570;SDS011;16814;52.118;11.436;2024-02-14T08:52:13;6.25;;;2.53;;
29570;SDS011;16814;52.118;11.436;2024-02-14T08:54:41;6.35;;;2.40;;
29570;SDS011;16814;52.118;11.436;2024-02-14T08:57:09;4.68;;;2.10;;
29570;SDS011;16814;52.118;11.436;2024-02-14T08:59:37;4.88;;;2.25;;
29570;SDS011;16814;52.118;11.436;2024-02-14T09:02:07;6.53;;;2.50;;
29570;SDS011;16814;52.118;11.436;2024-02-14T09:04:35;5.75;;;2.30;;
29570;SDS011;16814;52.118;11.436;2024-02-14T09:07:03;6.78;;;2.65;;
29570;SDS011;16814;52.118;11.436;2024-02-14T09:09:31;7.13;;;2.53;;
29570;SDS011;16814;52.118;11.436;2024-02-14T09:12:00;6.90;;;2.40;;
29570;SDS011;16814;52.118;11.436;2024-02-14T09:14:31;5.13;;;2.20;;
29570;SDS011;16814;52.118;11.436;2024-02-14T09:16:59;7.38;;;2.50;;
29570;SDS011;16814;52.118;11.436;2024-02-14T09:19:28;6.53;;;2.20;;
29570;SDS011;16814;52.118;11.436;2024-02-14T09:21:56;5.88;;;2.17;;
29570;SDS011;16814;52.118;11.436;2024-02-14T09:24:23;5.05;;;2.55;;
29570;SDS011;16814;52.118;11.436;2024-02-14T09:26:53;7.07;;;2.58;;
29570;SDS011;16814;52.118;11.436;2024-02-14T09:29:19;5.60;;;2.50;;
29570;SDS011;16814;52.118;11.436;2024-02-14T09:31:50;7.40;;;2.42;;
29570;SDS011;16814;52.118;11.436;2024-02-14T09:34:17;5.47;;;2.30;;
29570;SDS011;16814;52.118;11.436;2024-02-14T09:36:47;6.07;;;2.40;;
29570;SDS011;16814;52.118;11.436;2024-02-14T09:39:14;8.27;;;2.70;;
29570;SDS011;16814;52.118;11.436;2024-02-14T09:41:46;7.25;;;2.55;;
29570;SDS011;16814;52.118;11.436;2024-02-14T09:44:20;6.97;;;2.50;;
29570;SDS011;16814;52.118;11.436;2024-02-14T09:46:50;6.35;;;2.50;;
29570;SDS011;16814;52.118;11.436;2024-02-14T09:49:18;7.35;;;2.58;;
29570;SDS011;16814;52.118;11.436;2024-02-14T09:51:45;7.43;;;2.40;;
29570;SDS011;16814;52.118;11.436;2024-02-14T09:54:16;6.20;;;2.80;;
29570;SDS011;16814;52.118;11.436;2024-02-14T09:56:48;6.13;;;2.50;;
29570;SDS011;16814;52.118;11.436;2024-02-14T09:59:19;4.93;;;2.37;;
29570;SDS011;16814;52.118;11.436;2024-02-14T10:01:46;10.18;;;2.40;;
29570;SDS011;16814;52.118;11.436;2024-02-14T10:04:15;6.57;;;2.20;;
29570;SDS011;16814;52.118;11.436;2024-02-14T10:06:45;5.78;;;2.03;;
29570;SDS011;16814;52.118;11.436;2024-02-14T10:09:26;4.90;;;2.00;;
29570;SDS011;16814;52.118;11.436;2024-02-14T10:11:53;4.15;;;1.95;;
29570;SDS011;16814;52.118;11.436;2024-02-14T10:14:28;5.55;;;1.92;;
29570;SDS011;16814;52.118;11.436;2024-02-14T10:16:55;6.30;;;2.13;;
29570;SDS011;16814;52.118;11.436;2024-02-14T10:19:24;6.03;;;2.00;;
29570;SDS011;16814;52.118;11.436;2024-02-14T10:21:57;3.95;;;1.73;;
29570;SDS011;16814;52.118;11.436;2024-02-14T10:24:28;5.63;;;2.00;;
29570;SDS011;16814;52.118;11.436;2024-02-14T10:27:05;2.85;;;1.52;;
29570;SDS011;16814;52.118;11.436;2024-02-14T10:29:41;4.65;;;1.63;;
29570;SDS011;16814;52.118;11.436;2024-02-14T10:32:09;5.13;;;1.40;;
29570;SDS011;16814;52.118;11.436;2024-02-14T10:34:37;3.47;;;1.80;;
29570;SDS011;16814;52.118;11.436;2024-02-14T10:37:06;6.43;;;1.70;;
29570;SDS011;16814;52.118;11.436;2024-02-14T10:39:33;1.83;;;1.30;;
29570;SDS011;16814;52.118;11.436;2024-02-14T10:42:04;6.13;;;1.50;;
29570;SDS011;16814;52.118;11.436;2024-02-14T10:44:34;2.90;;;1.73;;
29570;SDS011;16814;52.118;11.436;2024-02-14T10:47:02;6.47;;;1.60;;
29570;SDS011;16814;52.118;11.436;2024-02-14T10:49:32;3.92;;;1.60;;
29570;SDS011;16814;52.118;11.436;2024-02-14T10:52:02;4.72;;;1.48;;
29570;SDS011;16814;52.118;11.436;2024-02-14T10:54:41;4.40;;;1.63;;
29570;SDS011;16814;52.118;11.436;2024-02-14T10:57:15;4.47;;;1.80;;
29570;SDS011;16814;52.118;11.436;2024-02-14T10:59:45;3.03;;;1.67;;
29570;SDS011;16814;52.118;11.436;2024-02-14T11:02:15;4.50;;;1.77;;
29570;SDS011;16814;52.118;11.436;2024-02-14T11:04:45;4.68;;;1.63;;
29570;SDS011;16814;52.118;11.436;2024-02-14T11:07:12;3.53;;;1.80;;
29570;SDS011;16814;52.118;11.436;2024-02-14T11:09:43;3.92;;;1.63;;
29570;SDS011;16814;52.118;11.436;2024-02-14T11:12:11;5.68;;;2.00;;
29570;SDS011;16814;52.118;11.436;2024-02-14T11:14:37;4.05;;;1.73;;
29570;SDS011;16814;52.118;11.436;2024-02-14T11:17:14;3.10;;;1.73;;
29570;SDS011;16814;52.118;11.436;2024-02-14T11:19:50;7.63;;;2.08;;
29570;SDS011;16814;52.118;11.436;2024-02-14T11:22:20;3.90;;;1.80;;
29570;SDS011;16814;52.118;11.436;2024-02-14T11:24:48;3.22;;;1.70;;
29570;SDS011;16814;52.118;11.436;2024-02-14T11:27:17;5.20;;;1.90;;
29570;SDS011;16814;52.118;11.436;2024-02-14T11:29:51;4.00;;;1.52;;
29570;SDS011;16814;52.118;11.436;2024-02-14T11:32:19;4.18;;;1.70;;
29570;SDS011;16814;52.118;11.436;2024-02-14T11:35:00;2.83;;;1.50;;
29570;SDS011;16814;52.118;11.436;2024-02-14T11:37:28;3.90;;;1.67;;
29570;SDS011;16814;52.118;11.436;2024-02-14T11:39:57;5.20;;;2.20;;
29570;SDS011;16814;52.118;11.436;2024-02-14T11:42:24;5.95;;;1.80;;
29570;SDS011;16814;52.118;11.436;2024-02-14T11:44:52;3.90;;;1.77;;
29570;SDS011;16814;52.118;11.436;2024-02-14T11:47:23;4.93;;;1.80;;
29570;SDS011;16814;52.118;11.436;2024-02-14T11:49:52;4.85;;;1.70;;
29570;SDS011;16814;52.118;11.436;2024-02-14T11:52:19;4.30;;;1.50;;
29570;SDS011;16814;52.118;11.436;2024-02-14T11:54:46;6.93;;;1.83;;
29570;SDS011;16814;52.118;11.436;2024-02-14T11:57:19;3.33;;;1.80;;
29570;SDS011;16814;52.118;11.436;2024-02-14T11:59:48;3.08;;;1.65;;
29570;SDS011;16814;52.118;11.436;2024-02-14T12:02:20;3.25;;;1.60;;
29570;SDS011;16814;52.118;11.436;2024-02-14T12:04:49;3.90;;;1.88;;
29570;SDS011;16814;52.118;11.436;2024-02-14T12:07:21;4.43;;;1.98;;
29570;SDS011;16814;52.118;11.436;2024-02-14T12:09:50;6.17;;;2.00;;
29570;SDS011;16814;52.118;11.436;2024-02-14T12:12:18;5.63;;;2.13;;
29570;SDS011;16814;52.118;11.436;2024-02-14T12:14:46;4.88;;;2.20;;
29570;SDS011;16814;52.118;11.436;2024-02-14T12:17:18;5.70;;;2.38;;
29570;SDS011;16814;52.118;11.436;2024-02-14T12:19:48;5.03;;;2.00;;
29570;SDS011;16814;52.118;11.436;2024-02-14T12:22:15;4.20;;;2.15;;
29570;SDS011;16814;52.118;11.436;2024-02-14T12:24:46;5.53;;;2.50;;
29570;SDS011;16814;52.118;11.436;2024-02-14T12:27:18;5.05;;;2.38;;
29570;SDS011;16814;52.118;11.436;2024-02-14T12:29:46;5.13;;;2.03;;
29570;SDS011;16814;52.118;11.436;2024-02-14T12:32:12;4.30;;;2.00;;
29570;SDS011;16814;52.118;11.436;2024-02-14T12:34:45;3.22;;;2.08;;
29570;SDS011;16814;52.118;11.436;2024-02-14T12:37:13;3.35;;;1.85;;
29570;SDS011;16814;52.118;11.436;2024-02-14T12:39:40;3.65;;;1.90;;
29570;SDS011;16814;52.118;11.436;2024-02-14T12:42:08;4.10;;;2.07;;
29570;SDS011;16814;52.118;11.436;2024-02-14T12:44:37;2.47;;;1.80;;
29570;SDS011;16814;52.118;11.436;2024-02-14T12:47:08;4.18;;;2.00;;
29570;SDS011;16814;52.118;11.436;2024-02-14T12:49:36;3.67;;;1.98;;
29570;SDS011;16814;52.118;11.436;2024-02-14T12:52:03;2.33;;;1.60;;
29570;SDS011;16814;52.118;11.436;2024-02-14T12:54:29;3.27;;;1.57;;
29570;SDS011;16814;52.118;11.436;2024-02-14T12:56:58;3.53;;;1.80;;
29570;SDS011;16814;52.118;11.436;2024-02-14T12:59:26;2.38;;;1.55;;
29570;SDS011;16814;52.118;11.436;2024-02-14T13:01:56;4.90;;;1.87;;
29570;SDS011;16814;52.118;11.436;2024-02-14T13:04:22;3.70;;;1.60;;
29570;SDS011;16814;52.118;11.436;2024-02-14T13:06:58;1.67;;;1.40;;
29570;SDS011;16814;52.118;11.436;2024-02-14T13:09:28;2.03;;;1.30;;
29570;SDS011;16814;52.118;11.436;2024-02-14T13:11:57;2.63;;;1.33;;
29570;SDS011;16814;52.118;11.436;2024-02-14T13:14:23;1.98;;;1.40;;
29570;SDS011;16814;52.118;11.436;2024-02-14T13:16:51;2.65;;;1.50;;
29570;SDS011;16814;52.118;11.436;2024-02-14T13:19:18;2.80;;;1.10;;
29570;SDS011;16814;52.118;11.436;2024-02-14T13:21:45;2.83;;;1.27;;
29570;SDS011;16814;52.118;11.436;2024-02-14T13:24:12;4.68;;;1.30;;
29570;SDS011;16814;52.118;11.436;2024-02-14T13:26:39;1.80;;;1.10;;
29570;SDS011;16814;52.118;11.436;2024-02-14T13:29:12;2.92;;;0.98;;
29570;SDS011;16814;52.118;11.436;2024-02-14T13:31:40;1.33;;;1.00;;
29570;SDS011;16814;52.118;11.436;2024-02-14T13:34:07;2.38;;;1.00;;
29570;SDS011;16814;52.118;11.436;2024-02-14T13:36:37;2.23;;;1.10;;
29570;SDS011;16814;52.118;11.436;2024-02-14T13:39:02;2.15;;;1.15;;
29570;SDS011;16814;52.118;11.436;2024-02-14T13:41:28;1.27;;;1.00;;
29570;SDS011;16814;52.118;11.436;2024-02-14T13:43:57;1.42;;;0.95;;
29570;SDS011;16814;52.118;11.436;2024-02-14T13:46:25;1.88;;;1.20;;
29570;SDS011;16814;52.118;11.436;2024-02-14T13:48:52;2.50;;;1.00;;
29570;SDS011;16814;52.118;11.436;2024-02-14T13:51:21;1.60;;;1.00;;
29570;SDS011;16814;52.118;11.436;2024-02-14T13:53:49;1.77;;;0.98;;
29570;SDS011;16814;52.118;11.436;2024-02-14T13:56:17;1.15;;;0.90;;
29570;SDS011;16814;52.118;11.436;2024-02-14T13:58:51;2.22;;;1.00;;
29570;SDS011;16814;52.118;11.436;2024-02-14T14:01:22;2.13;;;1.00;;
29570;SDS011;16814;52.118;11.436;2024-02-14T14:03:52;1.80;;;1.00;;
29570;SDS011;16814;52.118;11.436;2024-02-14T14:06:23;1.17;;;0.95;;
29570;SDS011;16814;52.118;11.436;2024-02-14T14:08:50;3.90;;;1.00;;
29570;SDS011;16814;52.118;11.436;2024-02-14T14:11:18;1.60;;;1.00;;
29570;SDS011;16814;52.118;11.436;2024-02-14T14:13:48;2.17;;;0.90;;
29570;SDS011;16814;52.118;11.436;2024-02-14T14:16:16;0.70;;;0.70;;
29570;SDS011;16814;52.118;11.436;2024-02-14T14:18:52;1.00;;;0.90;;
29570;SDS011;16814;52.118;11.436;2024-02-14T14:21:19;2.00;;;1.08;;
29570;SDS011;16814;52.118;11.436;2024-02-14T14:23:48;1.70;;;0.90;;
29570;SDS011;16814;52.118;11.436;2024-02-14T14:26:19;1.48;;;0.98;;
29570;SDS011;16814;52.118;11.436;2024-02-14T14:28:47;1.40;;;0.88;;
29570;SDS011;16814;52.118;11.436;2024-02-14T14:31:15;2.38;;;1.60;;
29570;SDS011;16814;52.118;11.436;2024-02-14T14:33:43;1.85;;;0.90;;
29570;SDS011;16814;52.118;11.436;2024-02-14T14:36:10;5.23;;;1.00;;
29570;SDS011;16814;52.118;11.436;2024-02-14T14:38:37;3.08;;;1.00;;
29570;SDS011;16814;52.118;11.436;2024-02-14T14:41:06;2.60;;;1.05;;